createdAt,value
2022-08-20T00:00:19.426Z,1.00
2022-08-20T00:03:27.622Z,1.10
2022-08-20T00:06:31.835Z,1.47
2022-08-20T00:09:36.761Z,1.00
2022-08-20T00:12:45.216Z,1.00
2022-08-20T00:15:48.560Z,0.90
2022-08-20T00:18:51.606Z,0.80
2022-08-20T00:21:57.974Z,1.00
2022-08-20T00:25:01.127Z,0.87
2022-08-20T00:28:06.923Z,1.20
2022-08-20T00:31:11.958Z,0.97
2022-08-20T00:34:14.662Z,1.37
2022-08-20T00:37:18.901Z,0.98
2022-08-20T00:40:24.151Z,1.30
2022-08-20T00:43:36.032Z,0.90
2022-08-20T00:46:39.123Z,1.23
2022-08-20T00:52:49.928Z,0.97
2022-08-20T00:55:52.984Z,0.80
2022-08-20T00:58:56.039Z,0.90
2022-08-20T01:01:59.711Z,0.80
2022-08-20T01:05:02.885Z,0.70
2022-08-20T01:11:12.496Z,0.70
2022-08-20T01:14:27.772Z,1.00
2022-08-20T01:17:34.411Z,0.80
2022-08-20T01:20:40.098Z,0.80
2022-08-20T01:23:52.612Z,0.70
2022-08-20T01:26:56.922Z,0.90
2022-08-20T01:30:01.118Z,0.60
2022-08-20T01:33:08.855Z,0.80
2022-08-20T01:36:12.583Z,0.88
2022-08-20T01:39:19.216Z,0.90
2022-08-20T01:42:26.944Z,0.77
2022-08-20T01:45:31.023Z,0.83
2022-08-20T01:48:33.940Z,0.90
2022-08-20T01:51:36.529Z,0.88
2022-08-20T01:54:39.218Z,0.93
2022-08-20T01:57:43.221Z,0.85
2022-08-20T02:00:45.852Z,1.00
2022-08-20T02:03:48.758Z,0.77
2022-08-20T02:06:57.338Z,1.17
2022-08-20T02:10:00.421Z,0.83
2022-08-20T02:13:06.217Z,0.52
2022-08-20T02:16:09.040Z,0.70
2022-08-20T02:19:15.459Z,0.95
2022-08-20T02:22:22.801Z,0.60
2022-08-20T02:25:30.636Z,1.30
2022-08-20T02:28:35.022Z,1.30
2022-08-20T02:31:38.388Z,1.10
2022-08-20T02:35:02.290Z,1.55
2022-08-20T02:38:05.279Z,1.60
2022-08-20T02:41:08.562Z,2.17
2022-08-20T02:44:12.659Z,1.80
2022-08-20T02:47:15.350Z,1.63
2022-08-20T02:50:21.058Z,1.67
2022-08-20T02:53:24.612Z,1.60
2022-08-20T02:56:27.358Z,1.60
2022-08-20T02:59:31.513Z,1.67
2022-08-20T03:02:34.335Z,2.13
2022-08-20T03:05:38.742Z,1.40
2022-08-20T03:08:42.172Z,0.90
2022-08-20T03:11:45.441Z,0.88
2022-08-20T03:14:49.399Z,0.90
2022-08-20T03:17:52.385Z,1.00
2022-08-20T03:20:55.243Z,0.85
2022-08-20T03:23:58.549Z,0.93
2022-08-20T03:27:01.284Z,0.98
2022-08-20T03:30:07.006Z,1.30
2022-08-20T03:33:10.284Z,1.00
2022-08-20T03:36:12.846Z,1.00
2022-08-20T03:39:22.052Z,1.03
2022-08-20T03:42:24.852Z,1.08
2022-08-20T03:45:29.824Z,1.92
2022-08-20T03:48:32.852Z,0.83
2022-08-20T03:51:57.611Z,1.10
2022-08-20T03:54:58.200Z,0.90
2022-08-20T03:58:03.208Z,0.90
2022-08-20T04:01:36.718Z,1.10
2022-08-20T04:04:30.884Z,1.03
2022-08-20T04:07:33.895Z,1.00
2022-08-20T04:10:37.390Z,1.00
2022-08-20T04:13:42.657Z,1.03
2022-08-20T04:16:47.591Z,1.07
2022-08-20T04:19:51.949Z,1.00
2022-08-20T04:22:59.257Z,1.20
2022-08-20T04:26:02.399Z,1.00
2022-08-20T04:29:05.297Z,1.20
2022-08-20T04:32:09.653Z,1.30
2022-08-20T04:35:14.582Z,1.00
2022-08-20T04:38:19.484Z,1.40
2022-08-20T04:41:24.189Z,1.20
2022-08-20T04:44:27.560Z,1.20
2022-08-20T04:50:39.462Z,1.60
2022-08-20T04:53:42.690Z,1.90
2022-08-20T04:59:48.119Z,1.63
2022-08-20T05:02:52.114Z,1.95
2022-08-20T05:05:54.992Z,1.53
2022-08-20T05:08:59.252Z,1.65
2022-08-20T05:12:01.826Z,2.20
2022-08-20T05:15:05.325Z,1.90
2022-08-20T05:18:10.222Z,2.43
2022-08-20T05:21:13.005Z,2.20
2022-08-20T05:24:18.360Z,2.23
2022-08-20T05:27:25.019Z,2.00
2022-08-20T05:30:33.339Z,2.03
2022-08-20T05:33:39.517Z,2.17
2022-08-20T05:36:44.205Z,2.27
2022-08-20T05:39:46.843Z,2.10
2022-08-20T05:42:49.693Z,2.08
2022-08-20T05:45:56.566Z,1.85
2022-08-20T05:49:01.807Z,2.10
2022-08-20T05:52:05.369Z,2.03
2022-08-20T05:55:09.965Z,1.80
2022-08-20T05:58:18.544Z,2.13
2022-08-20T06:01:21.341Z,2.10
2022-08-20T06:04:24.859Z,2.20
2022-08-20T06:07:27.823Z,2.30
2022-08-20T06:10:30.378Z,2.30
2022-08-20T06:13:32.979Z,2.28
2022-08-20T06:16:37.407Z,2.00
2022-08-20T06:19:44.198Z,1.97
2022-08-20T06:22:47.354Z,1.90
2022-08-20T06:25:50.835Z,2.08
2022-08-20T06:28:54.263Z,2.53
2022-08-20T06:31:56.991Z,2.00
2022-08-20T06:35:02.440Z,1.88
2022-08-20T06:38:06.879Z,2.07
2022-08-20T06:44:12.196Z,2.20
2022-08-20T06:47:15.109Z,1.80
2022-08-20T06:50:22.943Z,1.98
2022-08-20T06:53:25.663Z,1.83
2022-08-20T06:56:28.312Z,1.88
2022-08-20T06:59:31.180Z,2.00
2022-08-20T07:02:34.096Z,1.77
2022-08-20T07:08:41.641Z,2.13
2022-08-20T07:14:46.805Z,2.37
2022-08-20T07:17:51.697Z,2.38
2022-08-20T07:20:56.877Z,2.27
2022-08-20T07:23:59.505Z,2.83
2022-08-20T07:27:02.201Z,2.40
2022-08-20T07:30:25.542Z,2.35
2022-08-20T07:36:33.844Z,2.30
2022-08-20T07:39:36.678Z,2.20
2022-08-20T07:42:40.698Z,2.20
2022-08-20T07:45:45.209Z,2.20
2022-08-20T07:48:52.836Z,2.28
2022-08-20T07:51:56.754Z,2.67
2022-08-20T07:54:59.450Z,2.15
2022-08-20T07:58:10.138Z,2.53
2022-08-20T08:01:12.939Z,2.67
2022-08-20T08:07:20.240Z,2.70
2022-08-20T08:10:24.352Z,2.20
2022-08-20T08:13:28.122Z,2.10
2022-08-20T08:16:32.582Z,1.83
2022-08-20T08:19:38.874Z,1.90
2022-08-20T08:22:44.010Z,1.80
2022-08-20T08:25:46.848Z,2.28
2022-08-20T08:28:49.525Z,1.70
2022-08-20T08:31:55.667Z,1.80
2022-08-20T08:34:58.746Z,1.80
2022-08-20T08:38:02.848Z,1.90
2022-08-20T08:41:12.485Z,1.60
2022-08-20T08:44:21.820Z,1.80
2022-08-20T08:47:29.251Z,1.80
2022-08-20T08:50:54.140Z,2.08
2022-08-20T08:54:02.054Z,1.88
2022-08-20T08:57:08.569Z,1.80
2022-08-20T09:00:15.500Z,2.63
2022-08-20T09:03:24.491Z,1.95
2022-08-20T09:06:28.213Z,2.28
2022-08-20T09:09:34.623Z,1.70
2022-08-20T09:12:37.333Z,1.77
2022-08-20T09:15:39.911Z,1.88
2022-08-20T09:18:43.102Z,1.60
2022-08-20T09:21:45.806Z,1.80
2022-08-20T09:24:51.020Z,1.92
2022-08-20T09:27:53.824Z,2.60
2022-08-20T09:30:57.393Z,2.22
2022-08-20T09:34:01.066Z,2.10
2022-08-20T09:37:03.753Z,1.17
2022-08-20T09:40:09.887Z,1.33
2022-08-20T09:43:12.780Z,1.33
2022-08-20T09:49:17.916Z,1.13
2022-08-20T09:52:24.706Z,0.75
2022-08-20T09:55:33.896Z,1.00
2022-08-20T09:58:39.983Z,1.10
2022-08-20T10:01:42.902Z,1.00
2022-08-20T10:04:45.829Z,1.20
2022-08-20T10:07:48.661Z,0.90
2022-08-20T10:10:52.871Z,0.80
2022-08-20T10:13:55.522Z,0.77
2022-08-20T10:16:59.833Z,0.60
2022-08-20T10:20:03.027Z,0.80
2022-08-20T15:45:27.566Z,0.60
2022-08-20T15:48:34.098Z,0.60
2022-08-20T15:51:41.925Z,2.00
2022-08-20T15:54:45.255Z,0.75
2022-08-20T15:57:54.945Z,0.73
2022-08-20T16:01:24.789Z,0.60
2022-08-20T16:05:03.187Z,0.77
2022-08-20T16:08:17.982Z,0.80
2022-08-20T16:11:25.162Z,0.80
2022-08-20T16:14:30.105Z,0.57
2022-08-20T16:17:41.562Z,0.70
2022-08-20T16:20:48.301Z,0.63
2022-08-20T16:23:51.000Z,0.73
2022-08-20T16:27:10.409Z,0.70
2022-08-20T16:30:20.886Z,0.60
2022-08-20T16:33:28.818Z,0.57
2022-08-20T16:36:37.449Z,0.52
2022-08-20T16:39:44.912Z,0.70
2022-08-20T16:42:52.209Z,0.50
2022-08-20T16:45:56.925Z,0.90
2022-08-20T16:49:05.626Z,0.80
2022-08-20T16:52:08.703Z,0.65
2022-08-20T16:55:11.930Z,0.75
2022-08-20T16:58:14.723Z,0.80
2022-08-20T17:01:17.415Z,0.77
2022-08-20T17:04:23.396Z,0.77
2022-08-20T17:07:29.830Z,0.70
2022-08-20T17:10:39.700Z,0.95
2022-08-20T17:13:44.686Z,0.90
2022-08-20T17:16:49.714Z,1.05
2022-08-20T17:19:57.328Z,1.30
2022-08-20T17:23:11.228Z,1.10
2022-08-20T17:26:26.307Z,1.20
2022-08-20T17:29:31.495Z,1.00
2022-08-20T17:32:34.389Z,1.20
2022-08-20T17:35:42.977Z,1.00
2022-08-20T17:38:49.270Z,1.20
2022-08-20T17:41:56.034Z,1.00
2022-08-20T17:45:04.610Z,0.70
2022-08-20T17:48:13.273Z,1.00
2022-08-20T17:51:19.699Z,1.25
2022-08-20T17:54:24.364Z,0.90
2022-08-20T17:57:31.698Z,0.90
2022-08-20T18:00:34.770Z,1.10
2022-08-20T18:03:37.696Z,1.10
2022-08-20T18:06:45.804Z,1.40
2022-08-20T18:09:53.860Z,1.10
2022-08-20T18:13:01.135Z,1.60
2022-08-20T18:16:05.091Z,1.00
2022-08-20T18:19:15.294Z,1.30
2022-08-20T18:22:21.780Z,1.40
2022-08-20T18:25:33.622Z,1.38
2022-08-20T18:36:50.775Z,1.45
2022-08-20T18:40:46.136Z,1.57
2022-08-20T18:48:00.977Z,1.40
2022-08-20T18:59:38.991Z,1.30
2022-08-20T19:02:56.017Z,1.43
2022-08-20T19:06:08.800Z,1.30
2022-08-20T19:09:15.741Z,1.02
2022-08-20T19:12:33.829Z,1.10
2022-08-20T19:15:41.190Z,1.20
2022-08-20T19:18:47.865Z,1.27
2022-08-20T19:21:50.759Z,1.60
2022-08-20T19:24:56.760Z,1.15
2022-08-20T19:28:01.608Z,1.20
2022-08-20T19:31:17.122Z,1.40
2022-08-20T19:34:23.989Z,1.87
2022-08-20T19:37:39.662Z,1.80
2022-08-20T19:40:47.152Z,1.03
2022-08-20T19:43:55.263Z,1.40
2022-08-20T19:47:00.220Z,0.90
2022-08-20T19:50:16.908Z,1.10
2022-08-20T19:53:30.373Z,1.10
2022-08-20T19:56:40.748Z,1.10
2022-08-20T19:59:52.842Z,2.00
2022-08-20T20:02:57.755Z,1.30
2022-08-20T20:06:02.400Z,1.90
2022-08-20T20:09:08.144Z,1.40
2022-08-20T20:12:19.265Z,1.70
2022-08-20T20:15:26.040Z,1.60
2022-08-20T20:18:32.529Z,1.25
2022-08-20T20:21:39.133Z,1.53
2022-08-20T20:24:44.965Z,1.17
2022-08-20T20:27:49.853Z,1.17
2022-08-20T20:30:52.749Z,1.10
2022-08-20T20:33:59.246Z,1.30
2022-08-20T20:37:04.954Z,1.07
2022-08-20T20:40:19.082Z,0.90
2022-08-20T20:43:28.481Z,0.90
2022-08-20T20:46:33.074Z,1.83
2022-08-20T20:49:49.297Z,1.43
2022-08-20T20:52:55.495Z,1.47
2022-08-20T20:56:00.206Z,1.40
2022-08-20T20:59:06.788Z,1.20
2022-08-20T21:02:10.211Z,1.83
2022-08-20T21:05:16.643Z,1.10
2022-08-20T21:08:19.697Z,1.30
2022-08-20T21:11:22.669Z,1.52
2022-08-20T21:14:25.329Z,1.85
2022-08-20T21:17:28.060Z,1.05
2022-08-20T21:20:32.368Z,1.23
2022-08-20T21:23:40.270Z,1.20
2022-08-20T21:26:45.030Z,1.73
2022-08-20T21:29:47.731Z,1.80
2022-08-20T21:32:50.782Z,1.55
2022-08-20T21:38:57.813Z,1.90
2022-08-20T21:42:02.979Z,1.52
2022-08-20T21:45:08.211Z,1.07
2022-08-20T21:48:11.476Z,1.73
2022-08-20T21:54:18.501Z,1.70
2022-08-20T21:57:22.640Z,1.38
2022-08-20T22:00:52.357Z,1.23
2022-08-20T22:03:55.363Z,1.87
2022-08-20T22:06:59.522Z,1.70
2022-08-20T22:10:04.284Z,2.20
2022-08-20T22:13:07.348Z,1.60
2022-08-20T22:19:16.234Z,2.03
2022-08-20T22:22:21.709Z,1.70
2022-08-20T22:25:24.410Z,1.63
2022-08-20T22:28:27.282Z,1.67
2022-08-20T22:31:31.172Z,1.30
2022-08-20T22:34:35.624Z,1.50
2022-08-20T22:37:39.757Z,1.60
2022-08-20T22:40:42.687Z,2.10
2022-08-20T22:43:55.699Z,2.25
2022-08-20T22:47:02.827Z,2.17
2022-08-20T22:50:06.597Z,2.23
2022-08-20T22:53:11.605Z,2.13
2022-08-20T22:56:21.902Z,2.10
2022-08-20T22:59:25.840Z,1.93
2022-08-20T23:02:28.609Z,1.60
2022-08-20T23:05:32.953Z,2.67
2022-08-20T23:08:38.086Z,1.80
2022-08-20T23:11:40.823Z,2.07
2022-08-20T23:14:43.491Z,1.90
2022-08-20T23:17:46.396Z,1.65
2022-08-20T23:20:53.394Z,1.67
2022-08-20T23:23:57.416Z,2.00
2022-08-20T23:27:00.313Z,1.67
2022-08-20T23:30:02.940Z,1.63
2022-08-20T23:33:05.763Z,2.28
2022-08-20T23:36:10.353Z,1.70
2022-08-20T23:39:14.406Z,1.90
2022-08-20T23:42:17.700Z,1.87
2022-08-20T23:48:23.352Z,2.07
2022-08-20T23:51:26.176Z,2.70
2022-08-20T23:54:33.805Z,2.20
2022-08-20T23:57:37.647Z,1.60
